sensor_id;sensor_type;location;lat;lon;timestamp;P1;durP1;ratioP1;P2;durP2;ratioP2
12429;SDS011;6279;42.192;24.326;2023-09-19T00:00:41;8.43;;;5.67;;
12429;SDS011;6279;42.192;24.326;2023-09-19T00:03:08;6.60;;;5.03;;
12429;SDS011;6279;42.192;24.326;2023-09-19T00:05:34;10.10;;;4.80;;
12429;SDS011;6279;42.192;24.326;2023-09-19T00:08:00;6.67;;;5.07;;
12429;SDS011;6279;42.192;24.326;2023-09-19T00:10:29;8.73;;;5.23;;
12429;SDS011;6279;42.192;24.326;2023-09-19T00:12:56;6.07;;;4.80;;
12429;SDS011;6279;42.192;24.326;2023-09-19T00:15:26;8.53;;;5.20;;
12429;SDS011;6279;42.192;24.326;2023-09-19T00:17:55;7.40;;;5.40;;
12429;SDS011;6279;42.192;24.326;2023-09-19T00:20:21;10.70;;;5.20;;
12429;SDS011;6279;42.192;24.326;2023-09-19T00:22:48;10.20;;;5.00;;
12429;SDS011;6279;42.192;24.326;2023-09-19T00:25:18;7.43;;;5.20;;
12429;SDS011;6279;42.192;24.326;2023-09-19T00:27:45;6.90;;;5.00;;
12429;SDS011;6279;42.192;24.326;2023-09-19T00:30:13;8.43;;;5.30;;
12429;SDS011;6279;42.192;24.326;2023-09-19T00:32:44;9.30;;;5.20;;
12429;SDS011;6279;42.192;24.326;2023-09-19T00:35:12;7.27;;;5.30;;
12429;SDS011;6279;42.192;24.326;2023-09-19T00:37:39;6.63;;;4.77;;
12429;SDS011;6279;42.192;24.326;2023-09-19T00:40:05;9.67;;;5.03;;
12429;SDS011;6279;42.192;24.326;2023-09-19T00:42:32;7.30;;;5.23;;
12429;SDS011;6279;42.192;24.326;2023-09-19T00:44:58;6.57;;;5.50;;
12429;SDS011;6279;42.192;24.326;2023-09-19T00:47:24;9.47;;;5.17;;
12429;SDS011;6279;42.192;24.326;2023-09-19T00:49:50;8.70;;;5.40;;
12429;SDS011;6279;42.192;24.326;2023-09-19T00:52:16;7.23;;;5.10;;
12429;SDS011;6279;42.192;24.326;2023-09-19T00:54:46;10.33;;;5.27;;
12429;SDS011;6279;42.192;24.326;2023-09-19T00:57:12;6.13;;;4.53;;
12429;SDS011;6279;42.192;24.326;2023-09-19T00:59:39;6.27;;;4.97;;
12429;SDS011;6279;42.192;24.326;2023-09-19T01:02:06;10.07;;;5.00;;
12429;SDS011;6279;42.192;24.326;2023-09-19T01:04:31;6.30;;;4.43;;
12429;SDS011;6279;42.192;24.326;2023-09-19T01:06:57;7.37;;;4.73;;
12429;SDS011;6279;42.192;24.326;2023-09-19T01:09:23;6.70;;;4.77;;
12429;SDS011;6279;42.192;24.326;2023-09-19T01:11:49;5.10;;;4.50;;
12429;SDS011;6279;42.192;24.326;2023-09-19T01:16:57;5.00;;;4.30;;
12429;SDS011;6279;42.192;24.326;2023-09-19T01:30:47;6.70;;;4.43;;
12429;SDS011;6279;42.192;24.326;2023-09-19T01:33:19;6.57;;;4.73;;
12429;SDS011;6279;42.192;24.326;2023-09-19T01:35:45;5.83;;;4.67;;
12429;SDS011;6279;42.192;24.326;2023-09-19T01:38:10;6.57;;;5.10;;
12429;SDS011;6279;42.192;24.326;2023-09-19T01:40:38;5.73;;;4.50;;
12429;SDS011;6279;42.192;24.326;2023-09-19T01:43:17;7.00;;;4.73;;
12429;SDS011;6279;42.192;24.326;2023-09-19T01:45:50;7.63;;;4.70;;
12429;SDS011;6279;42.192;24.326;2023-09-19T01:48:36;7.50;;;5.27;;
12429;SDS011;6279;42.192;24.326;2023-09-19T01:51:07;8.67;;;4.87;;
12429;SDS011;6279;42.192;24.326;2023-09-19T01:53:44;6.50;;;4.40;;
12429;SDS011;6279;42.192;24.326;2023-09-19T01:56:25;7.40;;;5.30;;
12429;SDS011;6279;42.192;24.326;2023-09-19T01:58:59;9.73;;;5.13;;
12429;SDS011;6279;42.192;24.326;2023-09-19T02:01:29;6.93;;;5.33;;
12429;SDS011;6279;42.192;24.326;2023-09-19T02:03:56;7.33;;;5.00;;
12429;SDS011;6279;42.192;24.326;2023-09-19T02:06:23;9.73;;;4.97;;
12429;SDS011;6279;42.192;24.326;2023-09-19T02:08:50;6.40;;;4.93;;
12429;SDS011;6279;42.192;24.326;2023-09-19T02:11:15;10.33;;;4.80;;
12429;SDS011;6279;42.192;24.326;2023-09-19T02:13:41;8.27;;;4.70;;
12429;SDS011;6279;42.192;24.326;2023-09-19T02:16:06;7.07;;;4.63;;
12429;SDS011;6279;42.192;24.326;2023-09-19T02:18:34;5.60;;;4.83;;
12429;SDS011;6279;42.192;24.326;2023-09-19T02:21:00;6.27;;;4.60;;
12429;SDS011;6279;42.192;24.326;2023-09-19T02:23:26;5.43;;;4.93;;
12429;SDS011;6279;42.192;24.326;2023-09-19T02:25:52;6.37;;;5.17;;
12429;SDS011;6279;42.192;24.326;2023-09-19T02:28:18;5.57;;;5.07;;
12429;SDS011;6279;42.192;24.326;2023-09-19T02:30:47;10.23;;;5.03;;
12429;SDS011;6279;42.192;24.326;2023-09-19T02:33:13;8.63;;;5.40;;
12429;SDS011;6279;42.192;24.326;2023-09-19T02:35:39;8.80;;;5.23;;
12429;SDS011;6279;42.192;24.326;2023-09-19T02:38:04;8.30;;;5.07;;
12429;SDS011;6279;42.192;24.326;2023-09-19T02:40:31;5.87;;;5.13;;
12429;SDS011;6279;42.192;24.326;2023-09-19T02:43:00;9.00;;;5.60;;
12429;SDS011;6279;42.192;24.326;2023-09-19T02:45:27;9.03;;;5.73;;
12429;SDS011;6279;42.192;24.326;2023-09-19T02:47:52;7.73;;;5.80;;
12429;SDS011;6279;42.192;24.326;2023-09-19T02:50:18;9.37;;;6.13;;
12429;SDS011;6279;42.192;24.326;2023-09-19T02:52:44;8.40;;;5.87;;
12429;SDS011;6279;42.192;24.326;2023-09-19T02:55:13;5.93;;;5.33;;
12429;SDS011;6279;42.192;24.326;2023-09-19T02:57:46;7.23;;;5.40;;
12429;SDS011;6279;42.192;24.326;2023-09-19T03:00:12;5.77;;;5.13;;
12429;SDS011;6279;42.192;24.326;2023-09-19T03:02:38;5.93;;;5.10;;
12429;SDS011;6279;42.192;24.326;2023-09-19T03:05:06;11.93;;;5.47;;
12429;SDS011;6279;42.192;24.326;2023-09-19T03:07:32;6.53;;;5.07;;
12429;SDS011;6279;42.192;24.326;2023-09-19T03:09:58;7.90;;;4.90;;
12429;SDS011;6279;42.192;24.326;2023-09-19T03:12:25;7.97;;;5.50;;
12429;SDS011;6279;42.192;24.326;2023-09-19T03:14:53;6.43;;;5.37;;
12429;SDS011;6279;42.192;24.326;2023-09-19T03:17:19;7.37;;;5.63;;
12429;SDS011;6279;42.192;24.326;2023-09-19T03:19:45;7.13;;;5.30;;
12429;SDS011;6279;42.192;24.326;2023-09-19T03:22:12;9.50;;;5.27;;
12429;SDS011;6279;42.192;24.326;2023-09-19T03:24:38;7.13;;;5.07;;
12429;SDS011;6279;42.192;24.326;2023-09-19T03:27:03;6.97;;;5.90;;
12429;SDS011;6279;42.192;24.326;2023-09-19T03:29:29;5.77;;;5.27;;
12429;SDS011;6279;42.192;24.326;2023-09-19T03:31:55;6.10;;;5.47;;
12429;SDS011;6279;42.192;24.326;2023-09-19T03:34:20;10.00;;;5.90;;
12429;SDS011;6279;42.192;24.326;2023-09-19T03:36:46;7.50;;;5.43;;
12429;SDS011;6279;42.192;24.326;2023-09-19T03:39:11;7.20;;;5.53;;
12429;SDS011;6279;42.192;24.326;2023-09-19T03:41:37;6.80;;;5.00;;
12429;SDS011;6279;42.192;24.326;2023-09-19T03:44:03;6.70;;;5.63;;
12429;SDS011;6279;42.192;24.326;2023-09-19T03:46:28;8.70;;;5.57;;
12429;SDS011;6279;42.192;24.326;2023-09-19T03:48:55;8.93;;;5.57;;
12429;SDS011;6279;42.192;24.326;2023-09-19T03:51:20;6.67;;;5.67;;
12429;SDS011;6279;42.192;24.326;2023-09-19T03:53:46;9.17;;;6.30;;
12429;SDS011;6279;42.192;24.326;2023-09-19T03:56:14;8.83;;;5.67;;
12429;SDS011;6279;42.192;24.326;2023-09-19T03:58:39;6.93;;;5.43;;
12429;SDS011;6279;42.192;24.326;2023-09-19T04:01:05;6.70;;;5.93;;
12429;SDS011;6279;42.192;24.326;2023-09-19T04:03:34;8.80;;;5.47;;
12429;SDS011;6279;42.192;24.326;2023-09-19T04:06:13;9.70;;;6.10;;
12429;SDS011;6279;42.192;24.326;2023-09-19T04:08:39;5.97;;;5.37;;
12429;SDS011;6279;42.192;24.326;2023-09-19T04:11:04;11.80;;;5.97;;
12429;SDS011;6279;42.192;24.326;2023-09-19T04:13:29;11.10;;;6.30;;
12429;SDS011;6279;42.192;24.326;2023-09-19T04:15:55;7.90;;;5.80;;
12429;SDS011;6279;42.192;24.326;2023-09-19T04:18:20;12.50;;;6.57;;
12429;SDS011;6279;42.192;24.326;2023-09-19T04:20:51;10.57;;;6.50;;
12429;SDS011;6279;42.192;24.326;2023-09-19T04:23:17;6.37;;;5.43;;
12429;SDS011;6279;42.192;24.326;2023-09-19T04:25:45;8.77;;;5.77;;
12429;SDS011;6279;42.192;24.326;2023-09-19T04:28:10;9.97;;;6.00;;
12429;SDS011;6279;42.192;24.326;2023-09-19T04:30:36;9.40;;;6.50;;
12429;SDS011;6279;42.192;24.326;2023-09-19T04:33:02;8.67;;;6.37;;
12429;SDS011;6279;42.192;24.326;2023-09-19T04:35:28;6.57;;;5.97;;
12429;SDS011;6279;42.192;24.326;2023-09-19T04:37:56;8.57;;;6.23;;
12429;SDS011;6279;42.192;24.326;2023-09-19T04:40:22;8.17;;;6.10;;
12429;SDS011;6279;42.192;24.326;2023-09-19T04:42:55;12.23;;;6.30;;
12429;SDS011;6279;42.192;24.326;2023-09-19T04:45:22;10.73;;;6.37;;
12429;SDS011;6279;42.192;24.326;2023-09-19T04:47:48;9.23;;;6.13;;
12429;SDS011;6279;42.192;24.326;2023-09-19T04:50:13;9.30;;;5.73;;
12429;SDS011;6279;42.192;24.326;2023-09-19T04:52:41;9.43;;;5.60;;
12429;SDS011;6279;42.192;24.326;2023-09-19T04:55:13;10.47;;;6.03;;
12429;SDS011;6279;42.192;24.326;2023-09-19T04:57:46;8.00;;;5.90;;
12429;SDS011;6279;42.192;24.326;2023-09-19T05:00:13;12.57;;;5.87;;
12429;SDS011;6279;42.192;24.326;2023-09-19T05:02:40;11.73;;;5.73;;
12429;SDS011;6279;42.192;24.326;2023-09-19T05:05:07;8.03;;;5.70;;
12429;SDS011;6279;42.192;24.326;2023-09-19T05:07:40;11.67;;;5.40;;
12429;SDS011;6279;42.192;24.326;2023-09-19T05:10:06;5.83;;;4.80;;
12429;SDS011;6279;42.192;24.326;2023-09-19T05:12:33;7.37;;;5.97;;
12429;SDS011;6279;42.192;24.326;2023-09-19T05:14:59;9.90;;;5.30;;
12429;SDS011;6279;42.192;24.326;2023-09-19T05:17:26;6.67;;;5.70;;
12429;SDS011;6279;42.192;24.326;2023-09-19T05:19:52;12.90;;;6.60;;
12429;SDS011;6279;42.192;24.326;2023-09-19T05:22:17;13.17;;;7.40;;
12429;SDS011;6279;42.192;24.326;2023-09-19T05:24:43;10.60;;;6.03;;
12429;SDS011;6279;42.192;24.326;2023-09-19T05:27:12;6.80;;;5.13;;
12429;SDS011;6279;42.192;24.326;2023-09-19T05:29:37;12.03;;;5.83;;
12429;SDS011;6279;42.192;24.326;2023-09-19T05:32:03;8.97;;;5.43;;
12429;SDS011;6279;42.192;24.326;2023-09-19T05:34:29;8.73;;;5.83;;
12429;SDS011;6279;42.192;24.326;2023-09-19T05:36:55;8.27;;;5.10;;
12429;SDS011;6279;42.192;24.326;2023-09-19T05:39:21;5.63;;;4.67;;
12429;SDS011;6279;42.192;24.326;2023-09-19T05:41:46;8.17;;;5.53;;
12429;SDS011;6279;42.192;24.326;2023-09-19T05:44:12;11.80;;;6.23;;
12429;SDS011;6279;42.192;24.326;2023-09-19T05:46:39;7.33;;;5.20;;
12429;SDS011;6279;42.192;24.326;2023-09-19T05:49:04;11.53;;;5.47;;
12429;SDS011;6279;42.192;24.326;2023-09-19T05:51:30;8.20;;;4.93;;
12429;SDS011;6279;42.192;24.326;2023-09-19T05:53:55;8.10;;;5.13;;
12429;SDS011;6279;42.192;24.326;2023-09-19T05:56:21;6.73;;;4.23;;
12429;SDS011;6279;42.192;24.326;2023-09-19T05:58:47;6.90;;;4.73;;
12429;SDS011;6279;42.192;24.326;2023-09-19T06:01:12;7.87;;;4.40;;
12429;SDS011;6279;42.192;24.326;2023-09-19T06:03:38;4.27;;;3.60;;
12429;SDS011;6279;42.192;24.326;2023-09-19T06:06:03;7.10;;;3.77;;
12429;SDS011;6279;42.192;24.326;2023-09-19T06:08:31;7.00;;;4.10;;
12429;SDS011;6279;42.192;24.326;2023-09-19T06:10:57;7.57;;;5.00;;
12429;SDS011;6279;42.192;24.326;2023-09-19T06:13:22;5.70;;;5.10;;
12429;SDS011;6279;42.192;24.326;2023-09-19T06:15:50;10.43;;;3.97;;
12429;SDS011;6279;42.192;24.326;2023-09-19T06:18:16;7.03;;;4.67;;
12429;SDS011;6279;42.192;24.326;2023-09-19T06:20:47;8.53;;;4.80;;
12429;SDS011;6279;42.192;24.326;2023-09-19T06:23:14;7.25;;;4.68;;
12429;SDS011;6279;42.192;24.326;2023-09-19T06:25:40;6.55;;;3.97;;
12429;SDS011;6279;42.192;24.326;2023-09-19T06:28:06;4.53;;;3.80;;
12429;SDS011;6279;42.192;24.326;2023-09-19T06:30:33;4.70;;;3.72;;
12429;SDS011;6279;42.192;24.326;2023-09-19T06:32:59;6.75;;;3.58;;
12429;SDS011;6279;42.192;24.326;2023-09-19T06:35:28;10.95;;;4.40;;
12429;SDS011;6279;42.192;24.326;2023-09-19T06:37:57;5.15;;;3.90;;
12429;SDS011;6279;42.192;24.326;2023-09-19T06:40:23;7.20;;;3.95;;
12429;SDS011;6279;42.192;24.326;2023-09-19T06:42:52;6.35;;;4.00;;
12429;SDS011;6279;42.192;24.326;2023-09-19T06:45:19;5.35;;;3.83;;
12429;SDS011;6279;42.192;24.326;2023-09-19T06:47:49;5.15;;;3.83;;
12429;SDS011;6279;42.192;24.326;2023-09-19T06:50:25;6.45;;;4.03;;
12429;SDS011;6279;42.192;24.326;2023-09-19T06:52:52;5.32;;;3.40;;
12429;SDS011;6279;42.192;24.326;2023-09-19T06:55:19;3.83;;;3.40;;
12429;SDS011;6279;42.192;24.326;2023-09-19T06:57:46;5.70;;;3.53;;
12429;SDS011;6279;42.192;24.326;2023-09-19T07:00:12;4.25;;;2.85;;
12429;SDS011;6279;42.192;24.326;2023-09-19T07:03:02;6.55;;;3.55;;
12429;SDS011;6279;42.192;24.326;2023-09-19T07:05:33;4.70;;;3.42;;
12429;SDS011;6279;42.192;24.326;2023-09-19T07:08:02;4.85;;;3.60;;
12429;SDS011;6279;42.192;24.326;2023-09-19T07:10:29;5.25;;;3.50;;
12429;SDS011;6279;42.192;24.326;2023-09-19T07:12:58;7.97;;;3.58;;
12429;SDS011;6279;42.192;24.326;2023-09-19T07:15:28;4.90;;;3.30;;
12429;SDS011;6279;42.192;24.326;2023-09-19T07:17:56;6.30;;;3.83;;
12429;SDS011;6279;42.192;24.326;2023-09-19T07:20:22;10.45;;;4.35;;
12429;SDS011;6279;42.192;24.326;2023-09-19T07:22:51;6.00;;;4.20;;
12429;SDS011;6279;42.192;24.326;2023-09-19T07:25:17;3.80;;;3.20;;
12429;SDS011;6279;42.192;24.326;2023-09-19T07:27:42;6.32;;;3.88;;
12429;SDS011;6279;42.192;24.326;2023-09-19T07:30:09;6.15;;;4.28;;
12429;SDS011;6279;42.192;24.326;2023-09-19T07:32:35;8.45;;;4.15;;
12429;SDS011;6279;42.192;24.326;2023-09-19T07:35:01;6.65;;;4.35;;
12429;SDS011;6279;42.192;24.326;2023-09-19T07:37:33;6.60;;;4.53;;
12429;SDS011;6279;42.192;24.326;2023-09-19T07:40:01;4.95;;;4.00;;
12429;SDS011;6279;42.192;24.326;2023-09-19T07:42:36;6.88;;;4.43;;
12429;SDS011;6279;42.192;24.326;2023-09-19T07:45:05;8.70;;;5.43;;
12429;SDS011;6279;42.192;24.326;2023-09-19T07:47:32;5.72;;;4.30;;
12429;SDS011;6279;42.192;24.326;2023-09-19T07:49:58;7.20;;;4.38;;
12429;SDS011;6279;42.192;24.326;2023-09-19T07:52:26;5.20;;;3.83;;
12429;SDS011;6279;42.192;24.326;2023-09-19T07:54:52;4.90;;;4.30;;
12429;SDS011;6279;42.192;24.326;2023-09-19T07:57:18;6.43;;;4.35;;
12429;SDS011;6279;42.192;24.326;2023-09-19T07:59:44;6.28;;;4.55;;
12429;SDS011;6279;42.192;24.326;2023-09-19T08:02:10;6.28;;;4.53;;
12429;SDS011;6279;42.192;24.326;2023-09-19T08:04:43;9.55;;;4.78;;
12429;SDS011;6279;42.192;24.326;2023-09-19T08:07:11;10.25;;;5.25;;
12429;SDS011;6279;42.192;24.326;2023-09-19T08:09:37;6.78;;;4.15;;
12429;SDS011;6279;42.192;24.326;2023-09-19T08:12:03;6.13;;;4.25;;
12429;SDS011;6279;42.192;24.326;2023-09-19T08:14:29;4.90;;;3.97;;
12429;SDS011;6279;42.192;24.326;2023-09-19T08:16:58;9.48;;;4.10;;
12429;SDS011;6279;42.192;24.326;2023-09-19T08:19:24;6.80;;;4.55;;
12429;SDS011;6279;42.192;24.326;2023-09-19T08:21:53;9.63;;;4.00;;
12429;SDS011;6279;42.192;24.326;2023-09-19T08:24:25;8.15;;;3.90;;
12429;SDS011;6279;42.192;24.326;2023-09-19T08:26:53;5.28;;;3.90;;
12429;SDS011;6279;42.192;24.326;2023-09-19T08:29:19;6.22;;;4.25;;
12429;SDS011;6279;42.192;24.326;2023-09-19T08:31:45;5.55;;;3.88;;
12429;SDS011;6279;42.192;24.326;2023-09-19T08:34:14;7.63;;;3.88;;
12429;SDS011;6279;42.192;24.326;2023-09-19T08:36:40;5.00;;;3.30;;
12429;SDS011;6279;42.192;24.326;2023-09-19T08:39:06;9.23;;;4.55;;
12429;SDS011;6279;42.192;24.326;2023-09-19T08:41:33;3.95;;;3.38;;
12429;SDS011;6279;42.192;24.326;2023-09-19T08:43:59;5.80;;;4.18;;
12429;SDS011;6279;42.192;24.326;2023-09-19T08:46:26;8.07;;;4.47;;
12429;SDS011;6279;42.192;24.326;2023-09-19T08:49:03;10.20;;;5.63;;
12429;SDS011;6279;42.192;24.326;2023-09-19T08:54:03;4.03;;;3.50;;
12429;SDS011;6279;42.192;24.326;2023-09-19T08:56:31;7.25;;;3.70;;
12429;SDS011;6279;42.192;24.326;2023-09-19T08:59:07;7.03;;;3.90;;
12429;SDS011;6279;42.192;24.326;2023-09-19T09:01:36;5.10;;;4.35;;
12429;SDS011;6279;42.192;24.326;2023-09-19T09:04:06;5.15;;;3.70;;
12429;SDS011;6279;42.192;24.326;2023-09-19T09:06:34;5.80;;;3.72;;
12429;SDS011;6279;42.192;24.326;2023-09-19T09:09:01;6.10;;;3.63;;
12429;SDS011;6279;42.192;24.326;2023-09-19T09:11:28;6.95;;;3.78;;
12429;SDS011;6279;42.192;24.326;2023-09-19T09:13:54;5.53;;;3.88;;
12429;SDS011;6279;42.192;24.326;2023-09-19T09:16:19;6.38;;;4.45;;
12429;SDS011;6279;42.192;24.326;2023-09-19T09:18:45;4.20;;;3.80;;
12429;SDS011;6279;42.192;24.326;2023-09-19T09:21:12;5.07;;;3.78;;
12429;SDS011;6279;42.192;24.326;2023-09-19T09:23:40;6.50;;;4.05;;
12429;SDS011;6279;42.192;24.326;2023-09-19T09:26:06;10.90;;;4.20;;
12429;SDS011;6279;42.192;24.326;2023-09-19T09:28:32;6.55;;;4.20;;
12429;SDS011;6279;42.192;24.326;2023-09-19T09:31:00;7.80;;;3.92;;
12429;SDS011;6279;42.192;24.326;2023-09-19T09:33:34;4.78;;;3.60;;
12429;SDS011;6279;42.192;24.326;2023-09-19T09:36:01;5.72;;;3.55;;
12429;SDS011;6279;42.192;24.326;2023-09-19T09:38:47;5.88;;;3.85;;
12429;SDS011;6279;42.192;24.326;2023-09-19T09:41:20;5.15;;;4.10;;
12429;SDS011;6279;42.192;24.326;2023-09-19T09:44:12;5.65;;;3.88;;
12429;SDS011;6279;42.192;24.326;2023-09-19T09:46:43;7.20;;;3.90;;
12429;SDS011;6279;42.192;24.326;2023-09-19T09:49:22;6.93;;;4.10;;
12429;SDS011;6279;42.192;24.326;2023-09-19T09:52:04;7.22;;;4.80;;
12429;SDS011;6279;42.192;24.326;2023-09-19T09:54:32;8.85;;;4.00;;
12429;SDS011;6279;42.192;24.326;2023-09-19T09:57:06;7.20;;;3.50;;
12429;SDS011;6279;42.192;24.326;2023-09-19T09:59:54;6.43;;;3.83;;
12429;SDS011;6279;42.192;24.326;2023-09-19T10:02:30;6.78;;;4.00;;
12429;SDS011;6279;42.192;24.326;2023-09-19T10:07:49;5.40;;;3.80;;
12429;SDS011;6279;42.192;24.326;2023-09-19T10:10:36;3.88;;;3.47;;
12429;SDS011;6279;42.192;24.326;2023-09-19T10:13:09;8.95;;;3.90;;
12429;SDS011;6279;42.192;24.326;2023-09-19T10:15:42;6.45;;;3.95;;
12429;SDS011;6279;42.192;24.326;2023-09-19T10:18:11;5.32;;;3.92;;
12429;SDS011;6279;42.192;24.326;2023-09-19T10:20:42;6.15;;;3.55;;
12429;SDS011;6279;42.192;24.326;2023-09-19T10:23:10;4.28;;;3.88;;
12429;SDS011;6279;42.192;24.326;2023-09-19T10:25:40;5.15;;;3.83;;
12429;SDS011;6279;42.192;24.326;2023-09-19T10:28:08;5.75;;;4.00;;
12429;SDS011;6279;42.192;24.326;2023-09-19T10:30:40;4.47;;;3.60;;
12429;SDS011;6279;42.192;24.326;2023-09-19T10:33:13;5.15;;;3.95;;
12429;SDS011;6279;42.192;24.326;2023-09-19T10:35:41;3.92;;;3.33;;
12429;SDS011;6279;42.192;24.326;2023-09-19T10:38:09;4.60;;;3.78;;
12429;SDS011;6279;42.192;24.326;2023-09-19T10:40:37;4.13;;;3.72;;
12429;SDS011;6279;42.192;24.326;2023-09-19T10:43:08;5.70;;;4.07;;
12429;SDS011;6279;42.192;24.326;2023-09-19T10:45:37;5.68;;;4.10;;
12429;SDS011;6279;42.192;24.326;2023-09-19T10:48:05;6.47;;;3.72;;
12429;SDS011;6279;42.192;24.326;2023-09-19T10:50:43;7.72;;;3.97;;
12429;SDS011;6279;42.192;24.326;2023-09-19T10:53:12;4.90;;;3.58;;
12429;SDS011;6279;42.192;24.326;2023-09-19T10:55:38;6.63;;;4.00;;
12429;SDS011;6279;42.192;24.326;2023-09-19T10:58:07;6.63;;;3.67;;
12429;SDS011;6279;42.192;24.326;2023-09-19T11:00:58;5.63;;;4.60;;
12429;SDS011;6279;42.192;24.326;2023-09-19T11:03:43;6.05;;;4.60;;
12429;SDS011;6279;42.192;24.326;2023-09-19T11:06:15;4.20;;;3.80;;
12429;SDS011;6279;42.192;24.326;2023-09-19T11:09:00;7.82;;;4.70;;
12429;SDS011;6279;42.192;24.326;2023-09-19T11:11:56;8.23;;;4.03;;
12429;SDS011;6279;42.192;24.326;2023-09-19T11:17:29;4.53;;;3.83;;
12429;SDS011;6279;42.192;24.326;2023-09-19T11:30:47;5.88;;;3.78;;
12429;SDS011;6279;42.192;24.326;2023-09-19T11:36:03;6.63;;;4.00;;
12429;SDS011;6279;42.192;24.326;2023-09-19T11:43:52;8.30;;;4.10;;
12429;SDS011;6279;42.192;24.326;2023-09-19T11:46:24;4.63;;;4.05;;
12429;SDS011;6279;42.192;24.326;2023-09-19T11:48:52;5.57;;;4.05;;
12429;SDS011;6279;42.192;24.326;2023-09-19T11:51:24;6.05;;;4.25;;
12429;SDS011;6279;42.192;24.326;2023-09-19T11:53:53;7.10;;;4.15;;
12429;SDS011;6279;42.192;24.326;2023-09-19T11:56:21;7.88;;;4.40;;
12429;SDS011;6279;42.192;24.326;2023-09-19T11:58:52;6.50;;;4.32;;
12429;SDS011;6279;42.192;24.326;2023-09-19T12:01:23;9.45;;;4.63;;
12429;SDS011;6279;42.192;24.326;2023-09-19T12:03:52;5.93;;;4.35;;
12429;SDS011;6279;42.192;24.326;2023-09-19T12:06:19;6.93;;;4.10;;
12429;SDS011;6279;42.192;24.326;2023-09-19T12:08:46;7.70;;;4.53;;
12429;SDS011;6279;42.192;24.326;2023-09-19T12:11:13;6.00;;;4.13;;
12429;SDS011;6279;42.192;24.326;2023-09-19T12:13:41;5.13;;;3.60;;
12429;SDS011;6279;42.192;24.326;2023-09-19T12:16:18;7.53;;;4.53;;
12429;SDS011;6279;42.192;24.326;2023-09-19T12:18:48;5.15;;;3.80;;
12429;SDS011;6279;42.192;24.326;2023-09-19T12:21:28;8.80;;;4.20;;
12429;SDS011;6279;42.192;24.326;2023-09-19T12:24:03;4.75;;;4.03;;
12429;SDS011;6279;42.192;24.326;2023-09-19T12:26:44;6.32;;;3.78;;
12429;SDS011;6279;42.192;24.326;2023-09-19T12:29:16;5.75;;;3.83;;
12429;SDS011;6279;42.192;24.326;2023-09-19T12:31:55;6.65;;;3.88;;
12429;SDS011;6279;42.192;24.326;2023-09-19T12:34:31;5.30;;;3.90;;
12429;SDS011;6279;42.192;24.326;2023-09-19T12:39:51;8.35;;;4.28;;
12429;SDS011;6279;42.192;24.326;2023-09-19T12:42:23;8.30;;;4.00;;
12429;SDS011;6279;42.192;24.326;2023-09-19T12:44:53;6.55;;;3.97;;
12429;SDS011;6279;42.192;24.326;2023-09-19T12:47:22;5.18;;;3.88;;
12429;SDS011;6279;42.192;24.326;2023-09-19T12:50:08;7.40;;;4.30;;
12429;SDS011;6279;42.192;24.326;2023-09-19T12:52:50;5.05;;;3.92;;
12429;SDS011;6279;42.192;24.326;2023-09-19T12:58:08;6.18;;;3.72;;
12429;SDS011;6279;42.192;24.326;2023-09-19T13:05:50;5.63;;;3.95;;
12429;SDS011;6279;42.192;24.326;2023-09-19T13:08:17;5.72;;;3.80;;
12429;SDS011;6279;42.192;24.326;2023-09-19T13:13:34;4.82;;;4.22;;
12429;SDS011;6279;42.192;24.326;2023-09-19T13:16:06;6.50;;;3.80;;
12429;SDS011;6279;42.192;24.326;2023-09-19T13:18:42;6.22;;;4.00;;
12429;SDS011;6279;42.192;24.326;2023-09-19T13:21:10;4.68;;;3.78;;
12429;SDS011;6279;42.192;24.326;2023-09-19T13:23:40;5.00;;;3.95;;
12429;SDS011;6279;42.192;24.326;2023-09-19T13:26:08;6.30;;;4.45;;
12429;SDS011;6279;42.192;24.326;2023-09-19T13:28:34;6.15;;;3.92;;
12429;SDS011;6279;42.192;24.326;2023-09-19T13:30:59;4.80;;;3.90;;
12429;SDS011;6279;42.192;24.326;2023-09-19T13:33:24;7.85;;;3.95;;
12429;SDS011;6279;42.192;24.326;2023-09-19T13:35:51;6.28;;;3.80;;
12429;SDS011;6279;42.192;24.326;2023-09-19T13:38:17;8.25;;;4.10;;
12429;SDS011;6279;42.192;24.326;2023-09-19T13:40:47;5.03;;;3.80;;
12429;SDS011;6279;42.192;24.326;2023-09-19T13:43:12;4.45;;;3.88;;
12429;SDS011;6279;42.192;24.326;2023-09-19T13:45:38;6.40;;;4.28;;
12429;SDS011;6279;42.192;24.326;2023-09-19T13:48:07;8.05;;;4.32;;
12429;SDS011;6279;42.192;24.326;2023-09-19T13:50:34;9.48;;;4.03;;
12429;SDS011;6279;42.192;24.326;2023-09-19T13:53:01;7.70;;;4.28;;
12429;SDS011;6279;42.192;24.326;2023-09-19T13:55:27;5.93;;;3.95;;
12429;SDS011;6279;42.192;24.326;2023-09-19T13:57:53;5.40;;;4.50;;
12429;SDS011;6279;42.192;24.326;2023-09-19T14:00:24;8.55;;;4.15;;
12429;SDS011;6279;42.192;24.326;2023-09-19T14:02:49;5.00;;;4.00;;
12429;SDS011;6279;42.192;24.326;2023-09-19T14:05:15;5.97;;;4.43;;
12429;SDS011;6279;42.192;24.326;2023-09-19T14:07:42;5.93;;;4.22;;
12429;SDS011;6279;42.192;24.326;2023-09-19T14:10:09;8.82;;;4.40;;
12429;SDS011;6279;42.192;24.326;2023-09-19T14:12:36;6.25;;;4.20;;
12429;SDS011;6279;42.192;24.326;2023-09-19T14:15:02;5.13;;;4.22;;
12429;SDS011;6279;42.192;24.326;2023-09-19T14:17:32;6.63;;;3.75;;
12429;SDS011;6279;42.192;24.326;2023-09-19T14:19:58;7.15;;;4.03;;
12429;SDS011;6279;42.192;24.326;2023-09-19T14:22:23;5.25;;;4.30;;
12429;SDS011;6279;42.192;24.326;2023-09-19T14:24:48;6.10;;;3.75;;
12429;SDS011;6279;42.192;24.326;2023-09-19T14:27:14;9.05;;;4.07;;
12429;SDS011;6279;42.192;24.326;2023-09-19T14:29:39;8.05;;;4.50;;
12429;SDS011;6279;42.192;24.326;2023-09-19T14:32:06;5.50;;;3.67;;
12429;SDS011;6279;42.192;24.326;2023-09-19T14:34:31;8.48;;;4.50;;
12429;SDS011;6279;42.192;24.326;2023-09-19T14:36:58;8.70;;;3.47;;
12429;SDS011;6279;42.192;24.326;2023-09-19T14:39:23;7.78;;;3.80;;
12429;SDS011;6279;42.192;24.326;2023-09-19T14:41:49;5.40;;;3.83;;
12429;SDS011;6279;42.192;24.326;2023-09-19T14:44:14;8.20;;;4.32;;
12429;SDS011;6279;42.192;24.326;2023-09-19T14:46:43;5.72;;;3.65;;
12429;SDS011;6279;42.192;24.326;2023-09-19T14:49:10;5.97;;;4.38;;
12429;SDS011;6279;42.192;24.326;2023-09-19T14:51:37;9.55;;;4.90;;
12429;SDS011;6279;42.192;24.326;2023-09-19T14:54:05;8.95;;;3.88;;
12429;SDS011;6279;42.192;24.326;2023-09-19T14:56:32;7.97;;;4.70;;
12429;SDS011;6279;42.192;24.326;2023-09-19T14:58:57;6.90;;;3.65;;
12429;SDS011;6279;42.192;24.326;2023-09-19T15:01:23;7.40;;;4.10;;
12429;SDS011;6279;42.192;24.326;2023-09-19T15:03:48;7.57;;;4.00;;
12429;SDS011;6279;42.192;24.326;2023-09-19T15:06:14;8.15;;;4.40;;
12429;SDS011;6279;42.192;24.326;2023-09-19T15:08:42;6.70;;;4.35;;
12429;SDS011;6279;42.192;24.326;2023-09-19T15:11:12;5.50;;;4.32;;
12429;SDS011;6279;42.192;24.326;2023-09-19T15:13:44;10.77;;;4.18;;
12429;SDS011;6279;42.192;24.326;2023-09-19T15:16:10;10.05;;;4.20;;
12429;SDS011;6279;42.192;24.326;2023-09-19T15:21:03;6.28;;;4.60;;
12429;SDS011;6279;42.192;24.326;2023-09-19T15:23:34;7.90;;;4.50;;
12429;SDS011;6279;42.192;24.326;2023-09-19T15:26:02;9.77;;;4.68;;
12429;SDS011;6279;42.192;24.326;2023-09-19T15:28:31;8.73;;;4.13;;
12429;SDS011;6279;42.192;24.326;2023-09-19T15:31:02;10.85;;;4.60;;
12429;SDS011;6279;42.192;24.326;2023-09-19T15:33:32;6.70;;;4.65;;
12429;SDS011;6279;42.192;24.326;2023-09-19T15:36:02;8.02;;;5.43;;
12429;SDS011;6279;42.192;24.326;2023-09-19T15:38:28;10.13;;;5.40;;
12429;SDS011;6279;42.192;24.326;2023-09-19T15:40:54;8.43;;;5.13;;
12429;SDS011;6279;42.192;24.326;2023-09-19T15:43:20;13.25;;;5.28;;
12429;SDS011;6279;42.192;24.326;2023-09-19T15:45:46;5.32;;;4.13;;
12429;SDS011;6279;42.192;24.326;2023-09-19T15:48:13;9.75;;;4.35;;
12429;SDS011;6279;42.192;24.326;2023-09-19T15:50:39;6.70;;;3.63;;